createdAt,value
2019-03-04T00:00:55.419Z,86.30
2019-03-04T00:03:24.767Z,91.85
2019-03-04T00:05:54.115Z,90.67
2019-03-04T00:08:23.498Z,85.40
2019-03-04T00:10:52.576Z,94.10
2019-03-04T00:13:21.822Z,87.67
2019-03-04T00:15:51.041Z,90.20
2019-03-04T00:18:21.237Z,86.50
2019-03-04T00:20:50.557Z,87.85
2019-03-04T00:23:20.072Z,80.45
2019-03-04T00:25:49.237Z,79.92
2019-03-04T00:28:18.232Z,83.90
2019-03-04T00:30:47.392Z,82.25
2019-03-04T00:33:16.598Z,87.78
2019-03-04T00:35:45.416Z,88.58
2019-03-04T00:38:15.209Z,88.12
2019-03-04T00:40:44.081Z,80.55
2019-03-04T00:43:13.324Z,77.97
2019-03-04T00:45:42.922Z,80.47
2019-03-04T00:48:12.061Z,76.50
2019-03-04T00:50:41.274Z,77.35
2019-03-04T00:53:10.319Z,70.25
2019-03-04T00:55:39.320Z,77.67
2019-03-04T00:58:08.919Z,75.10
2019-03-04T01:00:38.738Z,72.22
2019-03-04T01:03:07.831Z,62.27
2019-03-04T01:05:37.028Z,60.25
2019-03-04T01:08:06.968Z,59.03
2019-03-04T01:10:35.933Z,57.05
2019-03-04T01:13:05.208Z,61.90
2019-03-04T01:15:34.546Z,69.47
2019-03-04T01:18:03.735Z,61.25
2019-03-04T01:20:33.218Z,61.30
2019-03-04T01:23:03.125Z,65.97
2019-03-04T01:25:32.166Z,60.92
2019-03-04T01:28:01.221Z,59.20
2019-03-04T01:30:30.319Z,55.98
2019-03-04T01:33:00.732Z,58.95
2019-03-04T01:35:29.931Z,64.00
2019-03-04T01:37:59.078Z,56.37
2019-03-04T01:40:28.591Z,59.15
2019-03-04T01:42:57.676Z,52.27
2019-03-04T01:45:27.285Z,56.60
2019-03-04T01:47:56.491Z,57.25
2019-03-04T01:50:25.574Z,63.63
2019-03-04T01:52:55.398Z,53.92
2019-03-04T01:55:24.678Z,53.28
2019-03-04T01:57:54.448Z,53.55
2019-03-04T02:00:23.683Z,54.03
2019-03-04T02:02:53.581Z,54.77
2019-03-04T02:05:23.584Z,55.17
2019-03-04T02:24:38.180Z,44.03
2019-03-04T02:27:07.438Z,46.58
2019-03-04T02:29:36.578Z,62.55
2019-03-04T02:32:05.689Z,56.80
2019-03-04T02:34:35.070Z,54.33
2019-03-04T02:37:04.065Z,66.02
2019-03-04T02:39:33.575Z,55.70
2019-03-04T02:42:02.422Z,80.40
2019-03-04T02:44:31.702Z,60.67
2019-03-04T02:47:00.871Z,70.95
2019-03-04T02:49:29.991Z,66.75
2019-03-04T02:51:59.607Z,233.28
2019-03-04T02:54:29.214Z,325.02
2019-03-04T02:56:58.377Z,69.87
2019-03-04T02:59:27.371Z,80.07
2019-03-04T03:18:42.576Z,63.15
2019-03-04T03:21:12.265Z,59.18
2019-03-04T03:23:41.501Z,73.05
2019-03-04T03:26:10.522Z,84.92
2019-03-04T03:28:39.835Z,65.42
2019-03-04T03:31:08.901Z,66.07
2019-03-04T03:33:38.002Z,80.25
2019-03-04T03:36:08.314Z,69.77
2019-03-04T03:38:37.595Z,58.13
2019-03-04T03:41:06.686Z,55.55
2019-03-04T03:43:35.725Z,50.12
2019-03-04T03:46:04.986Z,53.60
2019-03-04T03:48:34.258Z,56.75
2019-03-04T03:51:03.952Z,62.25
2019-03-04T03:53:33.008Z,126.07
2019-03-04T03:56:02.168Z,83.33
2019-03-04T03:58:31.436Z,62.70
2019-03-04T04:01:00.715Z,54.00
2019-03-04T04:03:30.221Z,125.72
2019-03-04T04:05:59.549Z,65.17
2019-03-04T04:08:28.714Z,61.35
2019-03-04T04:10:57.718Z,89.47
2019-03-04T04:13:27.238Z,86.75
2019-03-04T04:15:56.100Z,71.62
2019-03-04T04:18:25.306Z,75.20
2019-03-04T04:20:54.449Z,63.90
2019-03-04T04:23:23.370Z,62.75
2019-03-04T04:25:52.467Z,65.03
2019-03-04T04:28:21.728Z,64.60
2019-03-04T04:30:51.092Z,68.50
2019-03-04T04:33:19.876Z,65.97
2019-03-04T04:35:49.223Z,57.70
2019-03-04T04:38:18.383Z,75.47
2019-03-04T04:40:47.272Z,75.17
2019-03-04T04:43:16.536Z,74.40
2019-03-04T04:45:45.745Z,75.37
2019-03-04T04:48:14.772Z,59.03
2019-03-04T04:50:43.790Z,66.40
2019-03-04T04:53:13.054Z,57.58
2019-03-04T04:55:42.442Z,63.02
2019-03-04T04:58:12.050Z,66.97
2019-03-04T05:00:41.366Z,98.65
2019-03-04T05:03:10.671Z,114.75
2019-03-04T05:05:39.903Z,107.20
2019-03-04T05:08:09.159Z,149.35
2019-03-04T05:10:38.279Z,171.15
2019-03-04T05:13:07.476Z,171.95
2019-03-04T05:15:36.668Z,182.50
2019-03-04T05:18:05.523Z,183.25
2019-03-04T05:20:34.763Z,181.35
2019-03-04T05:23:04.037Z,173.02
2019-03-04T05:25:33.212Z,172.78
2019-03-04T05:28:02.369Z,139.92
2019-03-04T05:30:32.141Z,99.83
2019-03-04T05:33:02.075Z,104.80
2019-03-04T05:35:31.335Z,95.65
2019-03-04T05:38:00.272Z,89.25
2019-03-04T05:40:29.922Z,82.95
2019-03-04T05:42:59.173Z,96.17
2019-03-04T05:45:28.136Z,99.37
2019-03-04T05:47:57.059Z,91.90
2019-03-04T05:50:26.655Z,85.17
2019-03-04T05:52:56.687Z,85.97
2019-03-04T05:55:26.296Z,83.92
2019-03-04T05:57:56.813Z,81.53
2019-03-04T06:00:26.635Z,72.95
2019-03-04T06:02:56.143Z,66.77
2019-03-04T06:05:25.067Z,68.55
2019-03-04T06:07:57.598Z,66.47
2019-03-04T06:10:26.832Z,77.72
2019-03-04T06:12:56.015Z,74.20
2019-03-04T06:15:25.211Z,75.45
2019-03-04T06:17:54.328Z,71.07
2019-03-04T06:20:23.514Z,71.07
2019-03-04T06:22:52.980Z,67.65
2019-03-04T06:25:25.950Z,66.40
2019-03-04T06:27:55.500Z,73.67
2019-03-04T06:30:25.276Z,66.67
2019-03-04T06:32:54.680Z,71.60
2019-03-04T06:35:23.684Z,71.57
2019-03-04T06:37:53.718Z,66.30
2019-03-04T06:40:22.934Z,66.37
2019-03-04T06:42:51.999Z,65.92
2019-03-04T06:45:21.786Z,68.87
2019-03-04T06:47:50.596Z,72.47
2019-03-04T06:50:30.664Z,68.55
2019-03-04T06:52:59.974Z,71.17
2019-03-04T06:55:41.904Z,70.30
2019-03-04T06:58:11.387Z,66.55
2019-03-04T07:00:52.207Z,73.95
2019-03-04T07:03:26.972Z,65.97
2019-03-04T07:05:56.183Z,68.85
2019-03-04T07:09:33.271Z,66.12
2019-03-04T07:12:02.731Z,71.10
2019-03-04T07:31:18.203Z,75.15
2019-03-04T07:33:47.373Z,69.05
2019-03-04T07:36:16.489Z,68.47
2019-03-04T07:38:54.179Z,72.85
2019-03-04T07:41:23.720Z,71.37
2019-03-04T07:43:52.779Z,71.28
2019-03-04T07:46:22.342Z,71.10
2019-03-04T07:48:51.244Z,68.00
2019-03-04T07:51:20.696Z,69.10
2019-03-04T08:20:46.103Z,48.45
2019-03-04T08:23:15.684Z,53.10
2019-03-04T08:25:44.940Z,54.42
2019-03-04T08:28:15.338Z,49.85
2019-03-04T08:30:44.505Z,54.83
2019-03-04T08:33:13.592Z,47.03
2019-03-04T08:35:42.657Z,56.40
2019-03-04T08:38:11.792Z,53.20
2019-03-04T08:40:41.068Z,53.08
2019-03-04T08:43:10.616Z,49.55
2019-03-04T08:45:39.731Z,56.53
2019-03-04T08:48:08.864Z,47.23
2019-03-04T08:50:38.367Z,46.53
2019-03-04T08:53:07.434Z,49.95
2019-03-04T08:55:37.068Z,51.98
2019-03-04T08:58:06.056Z,48.85
2019-03-04T09:00:36.032Z,100.00
2019-03-04T09:03:05.533Z,53.08
2019-03-04T09:05:34.708Z,84.17
2019-03-04T09:08:04.206Z,50.45
2019-03-04T09:10:33.213Z,50.25
2019-03-04T09:13:02.987Z,52.27
2019-03-04T09:15:32.686Z,46.65
2019-03-04T09:18:01.531Z,50.17
2019-03-04T09:20:30.621Z,49.35
2019-03-04T09:22:59.759Z,59.10
2019-03-04T09:25:33.416Z,46.92
2019-03-04T09:28:02.746Z,50.28
2019-03-04T09:30:32.417Z,67.58
2019-03-04T09:33:01.427Z,57.67
2019-03-04T09:35:32.557Z,46.30
2019-03-04T09:38:00.055Z,46.90
2019-03-04T09:40:30.946Z,50.28
2019-03-04T09:43:01.137Z,49.43
2019-03-04T09:45:38.392Z,58.70
2019-03-04T09:47:59.657Z,48.30
2019-03-04T09:50:29.100Z,46.97
2019-03-04T09:52:58.274Z,45.77
2019-03-04T09:55:27.472Z,42.57
2019-03-04T09:57:57.153Z,42.07
2019-03-04T10:00:30.288Z,43.13
2019-03-04T10:03:04.399Z,50.47
2019-03-04T10:06:00.339Z,48.13
2019-03-04T10:08:55.788Z,47.53
2019-03-04T10:11:45.145Z,39.87
2019-03-04T10:16:27.918Z,44.43
2019-03-04T10:19:51.177Z,41.10
2019-03-04T10:22:42.884Z,37.00
2019-03-04T10:26:29.065Z,37.03
2019-03-04T10:30:15.297Z,38.70
2019-03-04T10:32:59.291Z,35.83
2019-03-04T10:35:46.847Z,28.73
2019-03-04T10:38:24.215Z,30.80
2019-03-04T10:57:40.025Z,27.40
2019-03-04T11:00:15.578Z,17.63
2019-03-04T11:02:44.588Z,12.57
2019-03-04T11:05:13.760Z,20.97
2019-03-04T11:07:42.999Z,36.90
2019-03-04T11:10:12.161Z,15.20
2019-03-04T11:18:24.152Z,6.13
2019-03-04T11:20:52.860Z,3.77
2019-03-04T11:23:21.808Z,4.00
2019-03-04T11:25:50.926Z,4.70
2019-03-04T11:28:20.067Z,3.27
2019-03-04T11:30:49.292Z,5.00
2019-03-04T11:33:18.486Z,4.07
2019-03-04T11:35:47.559Z,5.53
2019-03-04T11:38:59.801Z,5.77
2019-03-04T11:41:29.159Z,3.90
2019-03-04T11:43:58.772Z,6.87
2019-03-04T11:46:28.004Z,63.73
2019-03-04T11:48:57.172Z,9.23
2019-03-04T11:51:26.269Z,4.93
2019-03-04T11:53:55.712Z,7.13
2019-03-04T11:56:25.153Z,4.53
2019-03-04T11:58:54.179Z,6.93
2019-03-04T12:01:28.209Z,5.67
2019-03-04T12:03:57.196Z,6.07
2019-03-04T12:06:26.375Z,32.50
2019-03-04T12:08:55.596Z,32.90
2019-03-04T12:11:25.258Z,6.07
2019-03-04T12:13:54.465Z,8.63
2019-03-04T12:16:23.835Z,3.20
2019-03-04T12:18:53.202Z,5.40
2019-03-04T12:21:22.291Z,8.00
2019-03-04T12:23:51.367Z,4.10
2019-03-04T12:26:20.487Z,5.07
2019-03-04T12:28:50.070Z,10.83
2019-03-04T12:31:19.327Z,5.47
2019-03-04T12:33:48.492Z,5.37
2019-03-04T12:36:18.304Z,6.40
2019-03-04T12:38:48.071Z,5.53
2019-03-04T12:41:17.511Z,3.67
2019-03-04T12:43:46.471Z,4.83
2019-03-04T12:46:16.009Z,3.70
2019-03-04T12:48:44.819Z,5.17
2019-03-04T12:51:22.806Z,6.17
2019-03-04T12:53:43.841Z,3.63
2019-03-04T12:56:13.196Z,2.97
2019-03-04T12:58:42.411Z,8.60
2019-03-04T13:01:11.768Z,76.30
2019-03-04T13:03:40.883Z,5.73
2019-03-04T13:06:10.303Z,6.97
2019-03-04T13:08:39.740Z,7.60
2019-03-04T13:11:08.799Z,3.47
2019-03-04T13:13:37.787Z,7.03
2019-03-04T13:16:07.701Z,6.53
2019-03-04T13:18:37.649Z,6.53
2019-03-04T13:21:07.065Z,5.13
2019-03-04T13:23:36.116Z,7.43
2019-03-04T13:26:05.443Z,7.37
2019-03-04T13:28:34.627Z,9.77
2019-03-04T13:31:05.742Z,6.90
2019-03-04T13:33:33.043Z,18.13
2019-03-04T13:36:02.540Z,29.03
2019-03-04T13:38:32.044Z,8.20
2019-03-04T13:41:01.231Z,7.37
2019-03-04T13:43:30.576Z,23.77
2019-03-04T13:45:59.521Z,8.80
2019-03-04T13:48:28.551Z,6.27
2019-03-04T13:50:57.894Z,7.30
2019-03-04T13:53:27.520Z,7.27
2019-03-04T13:55:56.633Z,11.60
2019-03-04T13:58:25.606Z,4.50
2019-03-04T14:00:55.899Z,5.47
2019-03-04T14:03:25.112Z,5.17
2019-03-04T14:05:54.476Z,4.83
2019-03-04T14:08:23.889Z,6.03
2019-03-04T14:10:53.116Z,7.10
2019-03-04T14:13:22.483Z,4.53
2019-03-04T14:15:51.938Z,4.43
2019-03-04T14:18:21.215Z,6.53
2019-03-04T14:20:50.901Z,5.87
2019-03-04T14:23:20.119Z,4.80
2019-03-04T14:25:49.900Z,15.47
2019-03-04T14:28:18.695Z,16.63
2019-03-04T14:30:48.162Z,5.33
2019-03-04T14:33:17.635Z,5.63
2019-03-04T14:35:46.708Z,8.63
2019-03-04T14:38:15.903Z,6.13
2019-03-04T14:40:45.036Z,6.83
2019-03-04T14:43:14.283Z,6.10
2019-03-04T14:45:43.617Z,6.77
2019-03-04T14:48:12.912Z,5.53
2019-03-04T14:50:42.187Z,7.00
2019-03-04T14:53:11.345Z,7.87
2019-03-04T14:55:40.633Z,6.70
2019-03-04T14:58:10.063Z,6.73
2019-03-04T15:00:39.392Z,5.53
2019-03-04T15:03:19.020Z,5.20
2019-03-04T15:05:38.080Z,6.97
2019-03-04T15:08:07.184Z,9.30
2019-03-04T15:10:36.305Z,9.13
2019-03-04T15:13:05.490Z,5.47
2019-03-04T15:15:34.682Z,4.80
2019-03-04T15:18:04.025Z,4.50
2019-03-04T15:20:33.640Z,7.67
2019-03-04T15:23:02.806Z,5.23
2019-03-04T15:25:32.179Z,9.40
2019-03-04T15:28:10.739Z,7.90
2019-03-04T15:30:40.195Z,62.10
2019-03-04T15:33:17.649Z,7.60
2019-03-04T15:35:38.527Z,8.00
2019-03-04T15:38:07.873Z,7.80
2019-03-04T15:40:37.131Z,7.53
2019-03-04T15:43:06.084Z,10.83
2019-03-04T15:45:35.070Z,5.47
2019-03-04T15:48:04.329Z,6.93
2019-03-04T15:50:33.471Z,6.70
2019-03-04T15:53:02.369Z,12.47
2019-03-04T15:55:32.033Z,5.30
2019-03-04T15:58:01.283Z,6.30
2019-03-04T16:00:30.561Z,6.57
2019-03-04T16:02:59.780Z,8.53
2019-03-04T16:05:29.497Z,7.27
2019-03-04T16:08:07.161Z,10.33
2019-03-04T16:10:29.906Z,7.03
2019-03-04T16:12:59.112Z,12.47
2019-03-04T16:15:28.171Z,13.03
2019-03-04T16:17:56.861Z,8.43
2019-03-04T16:20:25.965Z,11.07
2019-03-04T16:22:55.343Z,16.03
2019-03-04T16:25:25.560Z,45.03
2019-03-04T16:27:59.879Z,56.70
2019-03-04T16:30:29.408Z,15.07
2019-03-04T16:32:58.491Z,15.93
2019-03-04T16:35:27.956Z,13.63
2019-03-04T16:37:57.519Z,14.10
2019-03-04T16:40:26.428Z,22.67
2019-03-04T16:42:56.589Z,18.17
2019-03-04T16:45:25.798Z,19.87
2019-03-04T16:47:55.644Z,15.73
2019-03-04T16:50:25.844Z,22.43
2019-03-04T16:52:55.280Z,33.67
2019-03-04T16:55:24.367Z,265.47
2019-03-04T16:57:53.443Z,31.37
2019-03-04T17:00:22.636Z,26.83
2019-03-04T17:02:52.427Z,21.47
2019-03-04T17:05:21.611Z,24.13
2019-03-04T17:07:51.027Z,26.97
2019-03-04T17:10:19.944Z,27.30
2019-03-04T17:12:49.690Z,18.50
2019-03-04T17:15:19.713Z,33.60
2019-03-04T17:17:48.543Z,31.27
2019-03-04T17:20:17.845Z,29.40
2019-03-04T17:22:46.839Z,36.13
2019-03-04T17:25:16.180Z,39.50
2019-03-04T17:27:46.018Z,47.03
2019-03-04T17:30:16.260Z,42.87
2019-03-04T17:32:45.588Z,44.70
2019-03-04T17:35:15.899Z,38.20
2019-03-04T17:37:44.835Z,31.60
2019-03-04T17:40:15.357Z,83.87
2019-03-04T17:42:44.726Z,43.23
2019-03-04T17:45:15.595Z,30.77
2019-03-04T17:47:44.703Z,25.93
2019-03-04T17:50:16.615Z,39.03
2019-03-04T17:52:45.436Z,69.63
2019-03-04T17:55:14.715Z,34.70
2019-03-04T17:57:43.874Z,28.80
2019-03-04T18:00:13.925Z,28.23
2019-03-04T18:02:43.188Z,33.50
2019-03-04T18:05:12.283Z,86.83
2019-03-04T18:07:41.544Z,152.17
2019-03-04T18:10:12.718Z,202.90
2019-03-04T18:12:42.131Z,171.83
2019-03-04T18:15:14.270Z,164.57
2019-03-04T18:17:43.361Z,165.57
2019-03-04T18:20:12.992Z,156.80
2019-03-04T18:22:42.104Z,163.37
2019-03-04T18:25:15.897Z,155.03
2019-03-04T18:27:51.665Z,142.73
2019-03-04T18:30:33.438Z,145.57
2019-03-04T18:33:13.522Z,147.28
2019-03-04T18:35:59.182Z,137.13
2019-03-04T18:38:43.066Z,148.57
2019-03-04T18:41:36.084Z,135.93
2019-03-04T18:44:30.983Z,164.47
2019-03-04T18:47:46.083Z,119.22
2019-03-04T18:50:15.191Z,108.72
2019-03-04T18:52:44.195Z,124.92
2019-03-04T18:55:13.523Z,121.45
2019-03-04T18:57:42.765Z,133.75
2019-03-04T19:00:14.197Z,139.85
2019-03-04T19:02:44.027Z,128.05
2019-03-04T19:05:13.720Z,99.65
2019-03-04T19:07:43.195Z,91.00
2019-03-04T19:10:12.487Z,97.30
2019-03-04T19:12:41.319Z,92.47
2019-03-04T19:15:10.921Z,79.40
2019-03-04T19:17:40.214Z,58.13
2019-03-04T19:20:12.097Z,50.67
2019-03-04T19:22:41.553Z,65.17
2019-03-04T19:25:11.213Z,80.70
2019-03-04T19:27:40.312Z,63.85
2019-03-04T19:30:10.040Z,71.10
2019-03-04T19:32:39.105Z,59.48
2019-03-04T19:35:08.403Z,57.73
2019-03-04T19:37:37.719Z,52.10
2019-03-04T19:40:07.515Z,43.45
2019-03-04T19:42:38.184Z,39.70
2019-03-04T19:45:09.291Z,45.58
2019-03-04T19:47:38.491Z,40.48
2019-03-04T19:50:08.644Z,43.58
2019-03-04T19:52:39.012Z,41.20
2019-03-04T19:55:09.403Z,42.33
2019-03-04T19:57:38.491Z,46.05
2019-03-04T20:00:09.618Z,41.48
2019-03-04T20:02:38.848Z,40.38
2019-03-04T20:05:08.115Z,43.55
2019-03-04T20:07:37.535Z,45.67
2019-03-04T20:10:07.179Z,41.98
2019-03-04T20:12:36.776Z,36.00
2019-03-04T20:15:07.895Z,39.48
2019-03-04T20:17:37.442Z,51.42
2019-03-04T20:20:07.937Z,44.05
2019-03-04T20:22:36.703Z,43.15
2019-03-04T20:25:06.804Z,38.67
2019-03-04T20:27:36.084Z,37.17
2019-03-04T20:30:05.344Z,38.25
2019-03-04T20:32:34.551Z,55.85
2019-03-04T20:35:03.847Z,45.63
2019-03-04T20:37:32.840Z,41.85
2019-03-04T20:40:03.320Z,47.33
2019-03-04T20:42:31.256Z,51.88
2019-03-04T20:45:00.112Z,46.37
2019-03-04T20:47:30.119Z,48.42
2019-03-04T20:49:59.299Z,69.62
2019-03-04T20:52:28.367Z,75.37
2019-03-04T20:54:57.872Z,71.90
2019-03-04T20:57:26.885Z,70.03
2019-03-04T20:59:56.113Z,74.42
2019-03-04T21:02:25.352Z,79.77
2019-03-04T21:04:54.510Z,65.60
2019-03-04T21:07:23.831Z,77.50
2019-03-04T21:09:53.547Z,66.77
2019-03-04T21:12:23.044Z,63.23
2019-03-04T21:14:52.277Z,60.40
2019-03-04T21:17:21.628Z,63.15
2019-03-04T21:19:51.037Z,63.28
2019-03-04T21:22:20.072Z,53.78
2019-03-04T21:24:49.004Z,47.83
2019-03-04T21:27:18.288Z,50.35
2019-03-04T21:30:06.000Z,50.17
2019-03-04T21:32:46.100Z,45.25
2019-03-04T21:36:02.661Z,42.67
2019-03-04T21:38:33.168Z,44.80
2019-03-04T21:41:12.662Z,44.50
2019-03-04T21:43:47.175Z,38.65
2019-03-04T21:47:26.782Z,33.95
2019-03-04T21:49:57.070Z,34.70
2019-03-04T21:52:37.427Z,30.37
2019-03-04T21:55:11.301Z,32.42
2019-03-04T21:57:44.104Z,33.92
2019-03-04T22:00:17.224Z,32.75
2019-03-04T22:02:51.091Z,31.25
2019-03-04T22:05:20.023Z,35.48
2019-03-04T22:07:49.283Z,32.65
2019-03-04T22:10:19.638Z,36.05
2019-03-04T22:12:48.659Z,39.85
2019-03-04T22:15:17.888Z,37.30
2019-03-04T22:17:47.082Z,39.42
2019-03-04T22:20:16.294Z,32.73
2019-03-04T22:22:45.267Z,30.50
2019-03-04T22:25:14.568Z,31.30
2019-03-04T22:27:43.696Z,33.28
2019-03-04T22:30:14.658Z,34.27
2019-03-04T22:32:43.916Z,39.10
2019-03-04T22:35:13.507Z,31.35
2019-03-04T22:37:43.444Z,33.63
2019-03-04T22:40:14.717Z,32.60
2019-03-04T22:42:44.052Z,43.68
2019-03-04T22:45:15.101Z,40.75
2019-03-04T22:47:44.312Z,39.13
2019-03-04T22:50:13.871Z,42.75
2019-03-04T22:52:42.886Z,40.03
2019-03-04T22:55:14.504Z,37.83
2019-03-04T22:57:43.610Z,37.78
2019-03-04T23:00:23.732Z,33.13
2019-03-04T23:02:55.103Z,33.88
2019-03-04T23:05:22.832Z,33.02
2019-03-04T23:07:54.441Z,36.63
2019-03-04T23:10:44.102Z,35.10
2019-03-04T23:13:49.374Z,40.25
2019-03-04T23:16:21.031Z,39.98
2019-03-04T23:18:49.843Z,34.03
2019-03-04T23:21:19.169Z,38.85
2019-03-04T23:23:49.012Z,39.53
2019-03-04T23:26:18.220Z,34.48
2019-03-04T23:28:47.534Z,39.65
2019-03-04T23:31:17.059Z,33.92
2019-03-04T23:33:46.967Z,39.33
2019-03-04T23:36:16.823Z,57.13
2019-03-04T23:38:47.027Z,53.92
2019-03-04T23:41:16.189Z,49.00
2019-03-04T23:43:45.292Z,47.70
2019-03-04T23:46:14.193Z,35.98
2019-03-04T23:48:43.536Z,33.48
2019-03-04T23:51:12.527Z,40.17
2019-03-04T23:53:42.002Z,46.58
2019-03-04T23:56:11.485Z,35.28
2019-03-04T23:58:40.903Z,33.88
